createdAt,value
2022-11-30T00:00:58.491Z,86.70
2022-11-30T00:03:28.659Z,90.90
2022-11-30T00:05:57.945Z,94.97
2022-11-30T00:08:29.139Z,91.17
2022-11-30T00:10:56.743Z,91.37
2022-11-30T00:13:24.628Z,88.67
2022-11-30T00:15:53.230Z,87.30
2022-11-30T00:18:20.905Z,92.70
2022-11-30T00:20:49.042Z,95.13
2022-11-30T00:23:18.058Z,88.13
2022-11-30T00:25:45.726Z,92.93
2022-11-30T00:28:13.679Z,85.00
2022-11-30T00:30:41.383Z,92.03
2022-11-30T00:33:09.283Z,101.90
2022-11-30T00:35:37.199Z,91.67
2022-11-30T00:38:05.023Z,88.30
2022-11-30T00:40:34.131Z,92.97
2022-11-30T00:43:01.904Z,89.30
2022-11-30T00:45:29.546Z,92.93
2022-11-30T00:47:57.220Z,86.50
2022-11-30T00:50:25.210Z,88.53
2022-11-30T00:52:52.819Z,90.20
2022-11-30T00:55:20.659Z,96.80
2022-11-30T00:57:51.489Z,97.63
2022-11-30T01:00:19.559Z,93.07
2022-11-30T01:02:47.188Z,92.30
2022-11-30T01:05:15.066Z,93.33
2022-11-30T01:07:42.677Z,86.20
2022-11-30T01:10:11.302Z,91.93
2022-11-30T01:12:39.188Z,90.33
2022-11-30T01:15:08.942Z,90.27
2022-11-30T01:17:36.693Z,85.77
2022-11-30T01:20:04.636Z,98.33
2022-11-30T01:22:32.284Z,84.53
2022-11-30T01:25:00.904Z,96.97
2022-11-30T01:27:28.991Z,92.23
2022-11-30T01:29:57.470Z,91.33
2022-11-30T01:32:26.508Z,90.63
2022-11-30T01:34:54.633Z,90.60
2022-11-30T01:37:23.000Z,97.07
2022-11-30T01:39:50.810Z,89.97
2022-11-30T01:42:21.493Z,91.03
2022-11-30T01:44:51.863Z,90.10
2022-11-30T01:47:21.542Z,97.63
2022-11-30T01:49:54.726Z,93.67
2022-11-30T01:52:25.908Z,99.33
2022-11-30T01:54:56.173Z,90.37
2022-11-30T01:57:28.211Z,98.20
2022-11-30T01:59:58.043Z,90.87
2022-11-30T02:02:30.080Z,90.60
2022-11-30T02:04:59.717Z,90.70
2022-11-30T02:07:28.172Z,95.90
2022-11-30T02:09:56.159Z,89.87
2022-11-30T02:12:28.664Z,100.17
2022-11-30T02:14:59.883Z,97.77
2022-11-30T02:17:29.689Z,90.57
2022-11-30T02:20:21.172Z,82.53
2022-11-30T02:22:59.812Z,87.80
2022-11-30T02:25:31.337Z,88.47
2022-11-30T02:28:09.424Z,92.23
2022-11-30T02:30:41.930Z,86.40
2022-11-30T02:33:11.333Z,86.70
2022-11-30T02:35:40.803Z,93.50
2022-11-30T02:38:09.035Z,93.40
2022-11-30T02:40:37.655Z,97.10
2022-11-30T02:43:07.101Z,91.50
2022-11-30T02:45:38.277Z,89.00
2022-11-30T02:48:08.906Z,87.97
2022-11-30T02:50:38.696Z,91.93
2022-11-30T02:53:06.993Z,95.60
2022-11-30T02:55:34.806Z,89.33
2022-11-30T02:58:02.744Z,97.40
2022-11-30T03:00:30.420Z,87.67
2022-11-30T03:02:58.316Z,82.40
2022-11-30T03:05:27.402Z,86.40
2022-11-30T03:07:55.098Z,83.47
2022-11-30T03:10:22.809Z,85.60
2022-11-30T03:12:50.499Z,89.37
2022-11-30T03:15:18.495Z,87.70
2022-11-30T03:17:46.436Z,85.60
2022-11-30T03:20:14.113Z,94.80
2022-11-30T03:22:43.308Z,94.77
2022-11-30T03:25:11.151Z,85.13
2022-11-30T03:27:38.910Z,107.30
2022-11-30T03:30:07.338Z,97.20
2022-11-30T03:32:34.956Z,84.77
2022-11-30T03:35:08.309Z,88.10
2022-11-30T03:37:35.962Z,92.13
2022-11-30T03:40:05.336Z,86.47
2022-11-30T03:42:33.398Z,94.20
2022-11-30T03:45:01.021Z,100.43
2022-11-30T03:47:28.925Z,91.33
2022-11-30T03:49:56.890Z,90.07
2022-11-30T03:52:24.594Z,85.47
2022-11-30T03:54:52.236Z,83.70
2022-11-30T03:57:21.508Z,85.17
2022-11-30T03:59:49.109Z,90.73
2022-11-30T04:02:16.714Z,87.47
2022-11-30T04:04:44.760Z,88.17
2022-11-30T04:07:12.547Z,92.67
2022-11-30T04:09:40.904Z,90.43
2022-11-30T04:12:09.099Z,93.13
2022-11-30T04:14:38.225Z,89.23
2022-11-30T04:17:06.032Z,89.63
2022-11-30T04:19:33.707Z,91.93
2022-11-30T04:22:01.504Z,88.37
2022-11-30T04:24:29.333Z,92.90
2022-11-30T04:26:57.094Z,93.30
2022-11-30T04:29:24.834Z,87.07
2022-11-30T04:31:54.011Z,95.00
2022-11-30T04:34:21.844Z,90.17
2022-11-30T04:36:49.697Z,91.80
2022-11-30T04:39:17.577Z,89.97
2022-11-30T04:41:45.307Z,91.13
2022-11-30T04:44:12.936Z,91.20
2022-11-30T04:46:40.834Z,95.73
2022-11-30T04:49:09.860Z,97.93
2022-11-30T04:51:37.540Z,93.97
2022-11-30T04:54:06.006Z,95.73
2022-11-30T04:56:33.817Z,92.07
2022-11-30T04:59:01.962Z,89.50
2022-11-30T05:01:30.082Z,89.63
2022-11-30T05:04:00.074Z,92.40
2022-11-30T05:06:29.921Z,95.27
2022-11-30T05:08:57.873Z,88.60
2022-11-30T05:11:25.594Z,91.60
2022-11-30T05:13:53.224Z,94.73
2022-11-30T05:16:21.128Z,90.07
2022-11-30T05:18:48.891Z,93.27
2022-11-30T05:21:17.833Z,89.43
2022-11-30T05:23:48.730Z,88.00
2022-11-30T05:26:16.654Z,97.03
2022-11-30T05:28:44.272Z,84.43
2022-11-30T05:31:12.244Z,97.60
2022-11-30T05:33:39.923Z,90.40
2022-11-30T05:36:10.962Z,92.70
2022-11-30T05:38:39.209Z,87.97
2022-11-30T05:41:08.157Z,92.17
2022-11-30T05:43:36.175Z,91.27
2022-11-30T05:46:04.284Z,90.63
2022-11-30T05:48:31.956Z,91.30
2022-11-30T05:51:05.396Z,106.23
2022-11-30T05:53:33.830Z,95.37
2022-11-30T05:56:02.585Z,93.80
2022-11-30T05:58:31.764Z,92.40
2022-11-30T06:00:59.933Z,85.80
2022-11-30T06:03:29.244Z,90.50
2022-11-30T06:05:57.126Z,94.63
2022-11-30T06:08:25.442Z,88.27
2022-11-30T06:10:53.430Z,85.07
2022-11-30T06:13:25.976Z,86.10
2022-11-30T06:16:01.886Z,86.20
2022-11-30T06:18:29.932Z,90.57
2022-11-30T06:21:00.449Z,96.07
2022-11-30T06:23:28.546Z,88.23
2022-11-30T06:25:56.205Z,94.30
2022-11-30T06:28:24.901Z,86.80
2022-11-30T06:30:52.589Z,94.20
2022-11-30T06:33:24.412Z,104.00
2022-11-30T06:35:52.918Z,101.57
2022-11-30T06:38:20.704Z,105.10
2022-11-30T06:40:48.648Z,90.43
2022-11-30T06:43:16.558Z,84.63
2022-11-30T06:45:44.974Z,90.33
2022-11-30T06:48:12.969Z,84.40
2022-11-30T06:50:46.849Z,99.50
2022-11-30T06:53:17.719Z,96.83
2022-11-30T06:55:45.474Z,96.03
2022-11-30T06:58:13.327Z,89.20
2022-11-30T07:00:40.981Z,87.00
2022-11-30T07:03:08.889Z,87.17
2022-11-30T07:05:40.640Z,82.33
2022-11-30T07:08:10.140Z,83.67
2022-11-30T07:10:40.407Z,81.63
2022-11-30T07:13:11.227Z,90.07
2022-11-30T07:15:39.190Z,92.30
2022-11-30T07:18:06.894Z,89.30
2022-11-30T07:20:36.644Z,90.50
2022-11-30T07:23:18.495Z,87.13
2022-11-30T07:26:05.575Z,89.57
2022-11-30T07:28:33.306Z,84.03
2022-11-30T07:31:00.875Z,85.40
2022-11-30T07:33:28.774Z,88.87
2022-11-30T07:35:56.529Z,81.43
2022-11-30T07:38:24.334Z,78.10
2022-11-30T07:40:53.531Z,91.27
2022-11-30T07:43:21.421Z,91.30
2022-11-30T07:45:53.004Z,89.23
2022-11-30T07:48:20.930Z,81.80
2022-11-30T07:50:48.621Z,85.47
2022-11-30T07:53:16.936Z,94.87
2022-11-30T07:55:44.814Z,92.50
2022-11-30T07:58:17.303Z,79.33
2022-11-30T08:00:45.473Z,85.20
2022-11-30T08:03:13.146Z,83.10
2022-11-30T08:05:40.878Z,85.43
2022-11-30T08:08:08.774Z,89.90
2022-11-30T08:10:36.555Z,87.30
2022-11-30T08:13:04.263Z,86.63
2022-11-30T08:15:34.120Z,87.00
2022-11-30T08:18:05.488Z,87.27
2022-11-30T08:20:33.784Z,91.40
2022-11-30T08:23:01.488Z,84.73
2022-11-30T08:25:30.686Z,84.40
2022-11-30T08:27:58.583Z,85.03
2022-11-30T08:30:27.946Z,80.57
2022-11-30T08:33:01.954Z,77.53
2022-11-30T08:35:29.559Z,84.40
2022-11-30T08:37:57.503Z,85.10
2022-11-30T08:40:25.393Z,79.90
2022-11-30T08:42:53.254Z,81.03
2022-11-30T08:45:20.826Z,89.03
2022-11-30T08:47:48.784Z,87.87
2022-11-30T08:50:17.874Z,92.47
2022-11-30T08:52:45.633Z,83.00
2022-11-30T08:55:13.489Z,86.63
2022-11-30T08:57:41.516Z,86.80
2022-11-30T09:00:10.072Z,79.97
2022-11-30T09:02:38.076Z,74.67
2022-11-30T09:05:06.289Z,76.80
2022-11-30T09:07:35.413Z,79.77
2022-11-30T09:10:03.481Z,78.00
2022-11-30T09:12:31.312Z,75.33
2022-11-30T09:14:59.322Z,85.90
2022-11-30T09:17:27.478Z,84.20
2022-11-30T09:19:55.875Z,77.87
2022-11-30T09:22:23.845Z,77.77
2022-11-30T09:24:55.746Z,76.97
2022-11-30T09:27:23.545Z,82.60
2022-11-30T09:29:51.114Z,79.47
2022-11-30T09:32:19.078Z,84.03
2022-11-30T09:34:46.821Z,78.83
2022-11-30T09:37:14.869Z,81.33
2022-11-30T09:39:42.609Z,76.70
2022-11-30T09:42:18.666Z,76.13
2022-11-30T09:44:51.137Z,77.20
2022-11-30T09:47:35.034Z,74.73
2022-11-30T09:50:04.163Z,79.73
2022-11-30T09:52:34.709Z,81.17
2022-11-30T09:55:06.470Z,75.07
2022-11-30T09:57:39.475Z,77.03
2022-11-30T10:00:12.423Z,78.27
2022-11-30T10:02:40.966Z,80.33
2022-11-30T10:05:13.540Z,85.77
2022-11-30T10:07:48.934Z,76.70
2022-11-30T10:10:34.809Z,91.90
2022-11-30T10:13:10.078Z,82.30
2022-11-30T10:15:45.311Z,83.03
2022-11-30T10:18:16.827Z,89.33
2022-11-30T10:20:52.856Z,88.20
2022-11-30T10:23:43.314Z,85.00
2022-11-30T10:26:13.058Z,84.23
2022-11-30T10:28:47.794Z,80.50
2022-11-30T10:31:17.349Z,78.80
2022-11-30T10:33:47.080Z,79.20
2022-11-30T10:36:16.593Z,81.60
2022-11-30T10:38:46.026Z,88.50
2022-11-30T10:41:16.752Z,85.03
2022-11-30T10:43:46.926Z,83.83
2022-11-30T10:46:19.041Z,86.13
2022-11-30T10:48:49.920Z,73.67
2022-11-30T10:51:18.131Z,90.30
2022-11-30T10:53:45.750Z,86.90
2022-11-30T10:56:14.748Z,84.60
2022-11-30T10:58:48.154Z,81.30
2022-11-30T11:01:32.086Z,83.30
2022-11-30T11:04:10.901Z,80.83
2022-11-30T11:06:42.250Z,85.53
2022-11-30T11:09:33.071Z,82.47
2022-11-30T11:12:02.110Z,80.60
2022-11-30T11:14:34.887Z,77.33
2022-11-30T11:17:07.617Z,80.63
2022-11-30T11:19:37.291Z,78.40
2022-11-30T11:22:06.661Z,89.23
2022-11-30T11:24:35.017Z,77.10
2022-11-30T11:27:02.788Z,94.17
2022-11-30T11:29:33.591Z,82.90
2022-11-30T11:32:22.156Z,94.33
2022-11-30T11:34:51.533Z,95.53
2022-11-30T11:37:24.697Z,77.80
2022-11-30T11:40:03.119Z,80.27
2022-11-30T11:42:32.640Z,80.27
2022-11-30T11:45:01.444Z,86.53
2022-11-30T11:47:38.737Z,90.83
2022-11-30T11:50:08.738Z,80.43
2022-11-30T11:52:36.953Z,83.37
2022-11-30T11:55:06.232Z,86.30
2022-11-30T11:57:38.802Z,80.17
2022-11-30T12:00:15.839Z,91.93
2022-11-30T12:02:50.654Z,87.00
2022-11-30T12:05:20.167Z,80.90
2022-11-30T12:07:51.397Z,88.07
2022-11-30T12:10:51.138Z,88.63
2022-11-30T12:13:15.166Z,81.80
2022-11-30T12:15:50.589Z,88.60
2022-11-30T12:18:24.219Z,97.43
2022-11-30T12:20:59.291Z,90.30
2022-11-30T12:23:39.547Z,92.67
2022-11-30T12:26:12.538Z,87.67
2022-11-30T12:28:44.571Z,92.40
2022-11-30T12:31:14.381Z,98.83
2022-11-30T12:33:51.183Z,94.20
2022-11-30T12:36:21.449Z,97.37
2022-11-30T12:38:50.275Z,96.30
2022-11-30T12:41:30.704Z,99.10
2022-11-30T12:44:01.398Z,96.67
2022-11-30T12:46:35.749Z,88.93
2022-11-30T12:49:13.397Z,94.23
2022-11-30T12:51:43.957Z,96.67
2022-11-30T12:54:17.271Z,104.30
2022-11-30T12:56:47.942Z,103.83
2022-11-30T12:59:19.575Z,111.13
2022-11-30T13:01:52.740Z,103.37
2022-11-30T13:04:25.333Z,103.53
2022-11-30T13:06:55.234Z,102.00
2022-11-30T13:09:26.089Z,96.37
2022-11-30T13:11:57.203Z,102.63
2022-11-30T13:14:26.053Z,94.73
2022-11-30T13:16:57.612Z,100.50
2022-11-30T13:19:31.433Z,99.20
2022-11-30T13:22:01.313Z,95.97
2022-11-30T13:24:33.057Z,95.23
2022-11-30T13:27:02.844Z,98.67
2022-11-30T13:29:50.459Z,93.80
2022-11-30T13:32:55.472Z,93.77
2022-11-30T13:35:25.447Z,105.50
2022-11-30T13:38:34.610Z,110.30
2022-11-30T13:40:56.101Z,103.57
2022-11-30T13:43:24.743Z,102.90
2022-11-30T13:46:02.755Z,108.53
2022-11-30T13:48:33.670Z,108.23
2022-11-30T13:51:01.919Z,108.47
2022-11-30T13:53:34.163Z,98.20
2022-11-30T13:56:03.377Z,101.70
2022-11-30T13:58:31.452Z,108.17
2022-11-30T14:01:20.673Z,112.67
2022-11-30T14:04:03.164Z,114.47
2022-11-30T14:06:48.164Z,111.87
2022-11-30T14:09:17.866Z,110.60
2022-11-30T14:11:46.106Z,113.37
2022-11-30T14:14:32.669Z,119.40
2022-11-30T14:17:00.447Z,126.77
2022-11-30T14:19:29.716Z,121.80
2022-11-30T14:21:58.371Z,124.37
2022-11-30T14:24:27.350Z,124.57
2022-11-30T14:26:57.141Z,124.83
2022-11-30T14:29:28.935Z,131.17
2022-11-30T14:31:59.236Z,127.97
2022-11-30T14:34:28.323Z,124.53
2022-11-30T14:36:57.813Z,126.47
2022-11-30T14:39:28.842Z,125.07
2022-11-30T14:41:56.710Z,134.43
2022-11-30T14:44:24.311Z,141.30
2022-11-30T14:46:52.192Z,129.63
2022-11-30T14:49:20.951Z,136.80
2022-11-30T14:51:50.221Z,151.00
2022-11-30T14:54:23.581Z,142.07
2022-11-30T14:56:53.897Z,144.60
2022-11-30T14:59:27.483Z,146.07
2022-11-30T15:01:59.176Z,156.23
2022-11-30T15:04:28.630Z,148.70
2022-11-30T15:06:56.553Z,151.80
2022-11-30T15:09:27.229Z,147.37
2022-11-30T15:11:57.086Z,149.90
2022-11-30T15:14:25.406Z,150.80
2022-11-30T15:16:54.715Z,151.10
2022-11-30T15:19:23.727Z,155.67
2022-11-30T15:21:52.071Z,155.80
2022-11-30T15:24:20.307Z,154.40
2022-11-30T15:26:54.388Z,143.53
2022-11-30T15:29:26.575Z,153.90
2022-11-30T15:31:55.965Z,144.70
2022-11-30T15:34:28.042Z,139.20
2022-11-30T15:36:56.861Z,141.40
2022-11-30T15:39:25.437Z,135.30
2022-11-30T15:41:54.774Z,140.23
2022-11-30T15:44:25.915Z,133.53
2022-11-30T15:46:57.962Z,135.67
2022-11-30T15:49:27.566Z,146.90
2022-11-30T15:52:04.571Z,145.30
2022-11-30T15:54:46.061Z,139.77
2022-11-30T15:57:13.871Z,142.93
2022-11-30T15:59:43.085Z,149.50
2022-11-30T16:02:27.894Z,142.17
2022-11-30T16:05:10.906Z,143.50
2022-11-30T16:07:49.506Z,142.33
2022-11-30T16:10:19.546Z,154.03
2022-11-30T16:12:49.329Z,146.47
2022-11-30T16:15:19.349Z,148.40
2022-11-30T16:17:47.004Z,151.40
2022-11-30T16:20:15.418Z,145.13
2022-11-30T16:22:44.589Z,140.90
2022-11-30T16:25:14.630Z,144.80
2022-11-30T16:27:42.803Z,142.33
2022-11-30T16:30:11.040Z,131.20
2022-11-30T16:32:40.433Z,133.50
2022-11-30T16:35:16.566Z,136.60
2022-11-30T16:37:44.814Z,133.43
2022-11-30T16:40:13.422Z,139.40
2022-11-30T16:42:41.699Z,130.10
2022-11-30T16:45:13.496Z,133.83
2022-11-30T16:47:43.314Z,145.03
2022-11-30T16:50:12.055Z,139.67
2022-11-30T16:52:39.786Z,130.90
2022-11-30T16:55:12.512Z,128.73
2022-11-30T16:57:40.322Z,131.67
2022-11-30T17:00:09.024Z,134.90
2022-11-30T17:02:39.397Z,136.60
2022-11-30T17:05:09.336Z,134.03
2022-11-30T17:07:37.731Z,139.13
2022-11-30T17:10:06.010Z,130.67
2022-11-30T17:12:35.282Z,133.93
2022-11-30T17:15:03.084Z,142.03
2022-11-30T17:17:30.874Z,139.10
2022-11-30T17:19:58.505Z,142.90
2022-11-30T17:22:27.740Z,137.33
2022-11-30T17:24:55.673Z,147.10
2022-11-30T17:27:23.266Z,145.30
2022-11-30T17:29:50.834Z,141.73
2022-11-30T17:32:18.969Z,138.20
2022-11-30T17:34:48.080Z,153.93
2022-11-30T17:37:16.082Z,141.97
2022-11-30T17:39:45.053Z,133.00
2022-11-30T17:42:12.867Z,131.93
2022-11-30T17:44:40.586Z,126.13
2022-11-30T17:47:08.625Z,127.70
2022-11-30T17:49:36.575Z,130.33
2022-11-30T17:52:06.274Z,143.70
2022-11-30T17:54:33.949Z,139.77
2022-11-30T17:57:02.955Z,143.90
2022-11-30T17:59:30.708Z,141.47
2022-11-30T18:01:58.488Z,139.30
2022-11-30T18:04:29.119Z,142.10
2022-11-30T18:06:57.222Z,137.13
2022-11-30T18:09:24.917Z,134.90
2022-11-30T18:11:52.829Z,137.53
2022-11-30T18:14:21.849Z,127.77
2022-11-30T18:16:49.686Z,127.93
2022-11-30T18:19:17.925Z,138.20
2022-11-30T18:21:45.573Z,128.10
2022-11-30T18:24:13.421Z,127.60
2022-11-30T18:26:41.625Z,121.17
2022-11-30T18:29:10.853Z,115.13
2022-11-30T18:31:39.944Z,117.70
2022-11-30T18:34:08.852Z,116.70
2022-11-30T18:36:36.511Z,117.07
2022-11-30T18:39:04.614Z,121.50
2022-11-30T18:41:32.344Z,119.57
2022-11-30T18:44:00.082Z,114.87
2022-11-30T18:46:28.006Z,117.77
2022-11-30T18:48:59.053Z,120.93
2022-11-30T18:51:27.767Z,114.13
2022-11-30T18:53:57.541Z,116.17
2022-11-30T18:56:26.324Z,108.40
2022-11-30T18:58:56.055Z,102.20
2022-11-30T19:01:24.048Z,109.57
2022-11-30T19:03:52.491Z,111.60
2022-11-30T19:06:21.669Z,110.37
2022-11-30T19:08:49.804Z,116.30
2022-11-30T19:11:18.313Z,112.43
2022-11-30T19:13:46.329Z,109.43
2022-11-30T19:16:14.983Z,114.60
2022-11-30T19:18:46.624Z,113.70
2022-11-30T19:21:15.387Z,110.60
2022-11-30T19:23:44.573Z,128.23
2022-11-30T19:26:13.713Z,122.30
2022-11-30T19:28:42.631Z,124.77
2022-11-30T19:31:11.454Z,118.67
2022-11-30T19:33:39.742Z,110.90
2022-11-30T19:36:08.932Z,119.77
2022-11-30T19:38:36.652Z,123.37
2022-11-30T19:41:09.745Z,119.40
2022-11-30T19:43:37.453Z,112.33
2022-11-30T19:46:06.499Z,112.80
2022-11-30T19:48:34.706Z,124.57
2022-11-30T19:51:05.202Z,121.27
2022-11-30T19:53:33.470Z,124.10
2022-11-30T19:56:04.709Z,119.00
2022-11-30T19:58:34.137Z,117.37
2022-11-30T20:01:02.403Z,135.13
2022-11-30T20:03:30.262Z,131.97
2022-11-30T20:05:57.882Z,131.30
2022-11-30T20:08:25.677Z,130.47
2022-11-30T20:10:53.794Z,128.10
2022-11-30T20:13:21.525Z,149.23
2022-11-30T20:15:50.680Z,131.80
2022-11-30T20:18:19.209Z,127.90
2022-11-30T20:20:46.837Z,138.67
2022-11-30T20:23:14.561Z,123.03
2022-11-30T20:25:42.452Z,124.67
2022-11-30T20:28:12.674Z,120.00
2022-11-30T20:30:40.910Z,119.73
2022-11-30T20:33:10.003Z,126.00
2022-11-30T20:35:37.755Z,118.77
2022-11-30T20:38:05.528Z,122.17
2022-11-30T20:40:33.509Z,123.70
2022-11-30T20:43:01.176Z,116.67
2022-11-30T20:45:28.866Z,126.37
2022-11-30T20:47:56.707Z,114.20
2022-11-30T20:50:25.760Z,120.30
2022-11-30T20:52:53.848Z,123.13
2022-11-30T20:55:21.955Z,129.60
2022-11-30T20:57:49.729Z,114.20
2022-11-30T21:00:18.220Z,132.63
2022-11-30T21:02:46.074Z,121.90
2022-11-30T21:05:13.712Z,122.40
2022-11-30T21:07:43.231Z,126.23
2022-11-30T21:10:11.926Z,127.20
2022-11-30T21:12:39.508Z,122.17
2022-11-30T21:15:07.940Z,122.57
2022-11-30T21:17:35.789Z,119.33
2022-11-30T21:20:03.933Z,117.60
2022-11-30T21:22:31.649Z,117.70
2022-11-30T21:25:00.870Z,121.97
2022-11-30T21:27:28.605Z,128.00
2022-11-30T21:29:56.252Z,120.83
2022-11-30T21:32:24.185Z,127.43
2022-11-30T21:34:51.929Z,126.80
2022-11-30T21:37:19.588Z,138.73
2022-11-30T21:39:47.887Z,132.07
2022-11-30T21:42:16.879Z,135.43
2022-11-30T21:44:44.768Z,129.33
2022-11-30T21:47:14.513Z,130.27
2022-11-30T21:49:42.180Z,142.83
2022-11-30T21:52:10.843Z,137.67
2022-11-30T21:54:38.622Z,131.20
2022-11-30T21:57:06.660Z,126.50
2022-11-30T21:59:36.152Z,140.17
2022-11-30T22:02:04.335Z,129.20
2022-11-30T22:04:32.038Z,128.10
2022-11-30T22:07:00.123Z,124.90
2022-11-30T22:09:27.822Z,132.50
2022-11-30T22:11:56.495Z,133.53
2022-11-30T22:14:25.050Z,134.43
2022-11-30T22:16:54.219Z,127.37
2022-11-30T22:19:22.089Z,133.80
2022-11-30T22:21:50.646Z,129.27
2022-11-30T22:24:18.295Z,114.83
2022-11-30T22:26:46.456Z,126.77
2022-11-30T22:29:15.589Z,113.27
2022-11-30T22:31:44.351Z,128.10
2022-11-30T22:34:13.651Z,126.50
2022-11-30T22:36:42.382Z,126.97
2022-11-30T22:39:12.752Z,129.37
2022-11-30T22:41:40.828Z,120.43
2022-11-30T22:44:08.793Z,129.87
2022-11-30T22:46:37.734Z,124.70
2022-11-30T22:49:06.248Z,125.97
2022-11-30T22:51:35.976Z,122.47
2022-11-30T22:54:04.389Z,143.30
2022-11-30T22:56:33.647Z,125.97
2022-11-30T22:59:01.751Z,131.10
2022-11-30T23:01:30.289Z,131.90
2022-11-30T23:04:01.500Z,140.07
2022-11-30T23:06:29.949Z,135.63
2022-11-30T23:08:59.440Z,123.63
2022-11-30T23:11:31.313Z,136.73
2022-11-30T23:13:59.138Z,127.67
2022-11-30T23:16:26.868Z,123.47
2022-11-30T23:18:56.016Z,127.47
2022-11-30T23:21:24.335Z,137.20
2022-11-30T23:23:52.341Z,131.73
2022-11-30T23:26:22.289Z,125.03
2022-11-30T23:28:50.925Z,136.30
2022-11-30T23:31:34.516Z,121.90
2022-11-30T23:34:05.184Z,127.53
2022-11-30T23:36:32.945Z,126.10
2022-11-30T23:39:01.829Z,126.27
2022-11-30T23:41:31.294Z,116.63
2022-11-30T23:43:58.934Z,128.53
2022-11-30T23:46:26.869Z,129.43
2022-11-30T23:48:55.846Z,117.00
2022-11-30T23:51:23.815Z,126.67
2022-11-30T23:53:51.548Z,121.50
2022-11-30T23:56:20.176Z,115.07
2022-11-30T23:58:49.581Z,114.13
